KDAY Airport Diagram

We have created a template for each of the higher traffic airports in the vZID airspace. They include KCMH, KCRW, KCVG, KDAY, KIND, KLEX and KSDF. You wil find usefull information including the airport diagram, weather, and specific airport procedures.

KDAY Weather

[Source: ADDS]
METAR
KDAY 240756Z 10010KT 10SM BKN050 OVC060 11/09 A3003 RMK AO2 SLP170 T01110094 =
TAF
KDAY 240520Z 2406/2506 10012KT P6SM OVC060 FM240900 09008KT P6SM VCSH OVC050 FM241400 11012KT 5SM -SHRA BR BKN025 OVC040 FM241800 10012KT 5SM BR VCSH OVC015 FM242100 07008KT 5SM BR VCSH OVC012 FM250200 01008KT P6SM OVC009 =

KDAY Operations

Approach/Departure operations for KDAY were consolidated into the Columbus TRACON quite some time back. We have recently made that change here at ZID. When arriving/departing the Dayton Airport and airports in the surrounding area, contact with the Columbus APP/DEP controller, if online, should be expected.

Calm Wind Configuration is runways 24L/R. This configuration is used up to and including 10kts.

Runway 24L typically departs south and east, except larger aircraft requiring a longer runway.

Runway 24R typically departs north and west.

 

JSN Epic template designed by JoomlaShine.com